sensor_id;sensor_type;location;lat;lon;timestamp;temperature;humidity
43679;DHT22;29279;50.858;4.392;2023-05-07T00:00:28;17.80;99.90
43679;DHT22;29279;50.858;4.392;2023-05-07T00:02:54;17.80;99.90
43679;DHT22;29279;50.858;4.392;2023-05-07T00:05:19;17.70;99.90
43679;DHT22;29279;50.858;4.392;2023-05-07T00:07:45;17.70;99.90
43679;DHT22;29279;50.858;4.392;2023-05-07T00:10:11;17.70;99.90
43679;DHT22;29279;50.858;4.392;2023-05-07T00:12:38;17.70;99.90
43679;DHT22;29279;50.858;4.392;2023-05-07T00:15:04;17.80;99.90
43679;DHT22;29279;50.858;4.392;2023-05-07T00:17:30;17.70;99.90
43679;DHT22;29279;50.858;4.392;2023-05-07T00:19:56;17.60;99.90
43679;DHT22;29279;50.858;4.392;2023-05-07T00:22:21;17.60;99.90
43679;DHT22;29279;50.858;4.392;2023-05-07T00:24:47;17.60;99.90
43679;DHT22;29279;50.858;4.392;2023-05-07T00:27:13;17.60;99.90
43679;DHT22;29279;50.858;4.392;2023-05-07T00:29:39;17.50;99.90
43679;DHT22;29279;50.858;4.392;2023-05-07T00:32:04;17.50;99.90
43679;DHT22;29279;50.858;4.392;2023-05-07T00:34:30;17.70;99.90
43679;DHT22;29279;50.858;4.392;2023-05-07T00:36:56;17.90;99.90
43679;DHT22;29279;50.858;4.392;2023-05-07T00:39:21;17.80;99.90
43679;DHT22;29279;50.858;4.392;2023-05-07T00:41:47;17.80;99.90
43679;DHT22;29279;50.858;4.392;2023-05-07T00:44:13;17.70;99.90
43679;DHT22;29279;50.858;4.392;2023-05-07T00:46:43;17.70;99.90
43679;DHT22;29279;50.858;4.392;2023-05-07T00:49:10;17.70;99.90
43679;DHT22;29279;50.858;4.392;2023-05-07T00:51:37;17.70;99.90
43679;DHT22;29279;50.858;4.392;2023-05-07T00:54:03;17.70;99.90
43679;DHT22;29279;50.858;4.392;2023-05-07T00:56:29;17.80;99.90
43679;DHT22;29279;50.858;4.392;2023-05-07T00:58:55;17.70;99.90
43679;DHT22;29279;50.858;4.392;2023-05-07T01:01:21;17.70;99.90
43679;DHT22;29279;50.858;4.392;2023-05-07T01:03:47;17.70;99.90
43679;DHT22;29279;50.858;4.392;2023-05-07T01:06:13;17.70;99.90
43679;DHT22;29279;50.858;4.392;2023-05-07T01:08:42;17.70;99.90
43679;DHT22;29279;50.858;4.392;2023-05-07T01:11:08;17.70;99.90
43679;DHT22;29279;50.858;4.392;2023-05-07T01:13:35;17.60;99.90
43679;DHT22;29279;50.858;4.392;2023-05-07T01:16:02;17.60;99.90
43679;DHT22;29279;50.858;4.392;2023-05-07T01:18:28;17.60;99.90
43679;DHT22;29279;50.858;4.392;2023-05-07T01:20:57;17.60;99.90
43679;DHT22;29279;50.858;4.392;2023-05-07T01:23:24;17.70;99.90
43679;DHT22;29279;50.858;4.392;2023-05-07T01:25:54;17.70;99.90
43679;DHT22;29279;50.858;4.392;2023-05-07T01:28:20;17.70;99.90
43679;DHT22;29279;50.858;4.392;2023-05-07T01:30:50;17.80;99.90
43679;DHT22;29279;50.858;4.392;2023-05-07T01:33:20;17.80;99.90
43679;DHT22;29279;50.858;4.392;2023-05-07T01:35:50;17.80;99.90
43679;DHT22;29279;50.858;4.392;2023-05-07T01:38:16;17.80;99.90
43679;DHT22;29279;50.858;4.392;2023-05-07T01:40:43;17.80;99.90
43679;DHT22;29279;50.858;4.392;2023-05-07T01:43:09;17.70;99.90
43679;DHT22;29279;50.858;4.392;2023-05-07T01:45:36;17.70;99.90
43679;DHT22;29279;50.858;4.392;2023-05-07T01:48:03;17.80;99.90
43679;DHT22;29279;50.858;4.392;2023-05-07T01:50:30;17.80;99.90
43679;DHT22;29279;50.858;4.392;2023-05-07T01:52:56;17.80;99.90
43679;DHT22;29279;50.858;4.392;2023-05-07T01:55:22;17.80;99.90
43679;DHT22;29279;50.858;4.392;2023-05-07T01:57:49;17.70;99.90
43679;DHT22;29279;50.858;4.392;2023-05-07T02:00:15;17.70;99.90
43679;DHT22;29279;50.858;4.392;2023-05-07T02:02:40;17.70;99.90
43679;DHT22;29279;50.858;4.392;2023-05-07T02:05:06;17.70;99.90
43679;DHT22;29279;50.858;4.392;2023-05-07T02:07:32;17.80;99.90
43679;DHT22;29279;50.858;4.392;2023-05-07T02:09:58;17.90;99.90
43679;DHT22;29279;50.858;4.392;2023-05-07T02:12:24;17.90;99.90
43679;DHT22;29279;50.858;4.392;2023-05-07T02:14:49;17.90;99.90
43679;DHT22;29279;50.858;4.392;2023-05-07T02:17:15;17.80;99.90
43679;DHT22;29279;50.858;4.392;2023-05-07T02:19:41;17.70;99.90
43679;DHT22;29279;50.858;4.392;2023-05-07T02:22:07;17.80;99.90
43679;DHT22;29279;50.858;4.392;2023-05-07T02:24:33;17.70;99.90
43679;DHT22;29279;50.858;4.392;2023-05-07T02:26:59;17.80;99.90
43679;DHT22;29279;50.858;4.392;2023-05-07T02:29:24;17.70;99.90
43679;DHT22;29279;50.858;4.392;2023-05-07T02:31:53;17.60;99.90
43679;DHT22;29279;50.858;4.392;2023-05-07T02:34:19;17.50;99.90
43679;DHT22;29279;50.858;4.392;2023-05-07T02:36:45;17.50;99.90
43679;DHT22;29279;50.858;4.392;2023-05-07T02:39:12;17.50;99.90
43679;DHT22;29279;50.858;4.392;2023-05-07T02:41:38;17.50;99.90
43679;DHT22;29279;50.858;4.392;2023-05-07T02:44:03;17.60;99.90
43679;DHT22;29279;50.858;4.392;2023-05-07T02:46:29;17.50;99.90
43679;DHT22;29279;50.858;4.392;2023-05-07T02:48:55;17.50;99.90
43679;DHT22;29279;50.858;4.392;2023-05-07T02:51:22;17.50;99.90
43679;DHT22;29279;50.858;4.392;2023-05-07T02:53:48;17.60;99.90
43679;DHT22;29279;50.858;4.392;2023-05-07T02:56:13;17.60;99.90
43679;DHT22;29279;50.858;4.392;2023-05-07T02:58:39;17.60;99.90
43679;DHT22;29279;50.858;4.392;2023-05-07T03:01:06;17.70;99.90
43679;DHT22;29279;50.858;4.392;2023-05-07T03:03:32;17.80;99.90
43679;DHT22;29279;50.858;4.392;2023-05-07T03:05:57;17.90;99.90
43679;DHT22;29279;50.858;4.392;2023-05-07T03:08:23;18.00;99.90
43679;DHT22;29279;50.858;4.392;2023-05-07T03:10:49;18.00;99.90
43679;DHT22;29279;50.858;4.392;2023-05-07T03:13:15;18.20;99.90
43679;DHT22;29279;50.858;4.392;2023-05-07T03:15:41;18.20;99.90
43679;DHT22;29279;50.858;4.392;2023-05-07T03:18:06;18.10;99.90
43679;DHT22;29279;50.858;4.392;2023-05-07T03:20:32;18.20;99.90
43679;DHT22;29279;50.858;4.392;2023-05-07T03:22:58;18.20;99.90
43679;DHT22;29279;50.858;4.392;2023-05-07T03:25:23;18.30;99.90
43679;DHT22;29279;50.858;4.392;2023-05-07T03:27:49;18.30;99.90
43679;DHT22;29279;50.858;4.392;2023-05-07T03:30:15;18.30;99.90
43679;DHT22;29279;50.858;4.392;2023-05-07T03:32:41;18.10;99.90
43679;DHT22;29279;50.858;4.392;2023-05-07T03:35:07;18.20;99.90
43679;DHT22;29279;50.858;4.392;2023-05-07T03:37:33;18.20;99.90
43679;DHT22;29279;50.858;4.392;2023-05-07T03:39:58;18.20;99.90
43679;DHT22;29279;50.858;4.392;2023-05-07T03:42:24;18.30;99.90
43679;DHT22;29279;50.858;4.392;2023-05-07T03:44:50;18.20;99.90
43679;DHT22;29279;50.858;4.392;2023-05-07T03:47:15;18.00;99.90
43679;DHT22;29279;50.858;4.392;2023-05-07T03:49:41;17.90;99.90
43679;DHT22;29279;50.858;4.392;2023-05-07T03:52:07;17.80;99.90
43679;DHT22;29279;50.858;4.392;2023-05-07T03:54:33;17.90;99.90
43679;DHT22;29279;50.858;4.392;2023-05-07T03:56:58;17.90;99.90
43679;DHT22;29279;50.858;4.392;2023-05-07T03:59:24;17.90;99.90
43679;DHT22;29279;50.858;4.392;2023-05-07T04:01:50;17.90;99.90
43679;DHT22;29279;50.858;4.392;2023-05-07T04:04:15;17.90;99.90
43679;DHT22;29279;50.858;4.392;2023-05-07T04:06:41;17.80;99.90
43679;DHT22;29279;50.858;4.392;2023-05-07T04:09:07;17.70;99.90
43679;DHT22;29279;50.858;4.392;2023-05-07T04:11:33;17.70;99.90
43679;DHT22;29279;50.858;4.392;2023-05-07T04:13:59;17.70;99.90
43679;DHT22;29279;50.858;4.392;2023-05-07T04:16:24;17.70;99.90
43679;DHT22;29279;50.858;4.392;2023-05-07T04:18:50;17.90;99.90
43679;DHT22;29279;50.858;4.392;2023-05-07T04:21:17;17.90;99.90
43679;DHT22;29279;50.858;4.392;2023-05-07T04:23:43;17.90;99.90
43679;DHT22;29279;50.858;4.392;2023-05-07T04:26:09;17.90;99.90
43679;DHT22;29279;50.858;4.392;2023-05-07T04:28:35;18.20;99.90
43679;DHT22;29279;50.858;4.392;2023-05-07T04:31:01;18.20;99.90
43679;DHT22;29279;50.858;4.392;2023-05-07T04:33:26;18.10;99.90
43679;DHT22;29279;50.858;4.392;2023-05-07T04:35:52;18.00;99.90
43679;DHT22;29279;50.858;4.392;2023-05-07T04:38:18;17.90;99.90
43679;DHT22;29279;50.858;4.392;2023-05-07T04:40:44;17.90;99.90
43679;DHT22;29279;50.858;4.392;2023-05-07T04:43:10;18.00;99.90
43679;DHT22;29279;50.858;4.392;2023-05-07T04:45:36;18.10;99.90
43679;DHT22;29279;50.858;4.392;2023-05-07T04:48:02;18.20;99.90
43679;DHT22;29279;50.858;4.392;2023-05-07T04:50:27;18.30;99.90
43679;DHT22;29279;50.858;4.392;2023-05-07T04:52:53;18.30;99.90
43679;DHT22;29279;50.858;4.392;2023-05-07T04:55:19;18.30;99.90
43679;DHT22;29279;50.858;4.392;2023-05-07T04:57:44;18.30;99.90
43679;DHT22;29279;50.858;4.392;2023-05-07T05:00:11;18.40;99.90
43679;DHT22;29279;50.858;4.392;2023-05-07T05:02:40;18.50;99.90
43679;DHT22;29279;50.858;4.392;2023-05-07T05:05:06;18.60;99.90
43679;DHT22;29279;50.858;4.392;2023-05-07T05:07:32;18.60;99.90
43679;DHT22;29279;50.858;4.392;2023-05-07T05:09:58;18.70;99.90
43679;DHT22;29279;50.858;4.392;2023-05-07T05:12:24;18.80;99.90
43679;DHT22;29279;50.858;4.392;2023-05-07T05:14:49;18.90;99.90
43679;DHT22;29279;50.858;4.392;2023-05-07T05:17:15;18.90;99.90
43679;DHT22;29279;50.858;4.392;2023-05-07T05:19:41;18.90;99.90
43679;DHT22;29279;50.858;4.392;2023-05-07T05:22:06;19.00;99.90
43679;DHT22;29279;50.858;4.392;2023-05-07T05:24:32;19.00;99.90
43679;DHT22;29279;50.858;4.392;2023-05-07T05:26:58;19.00;99.90
43679;DHT22;29279;50.858;4.392;2023-05-07T05:29:27;19.00;99.90
43679;DHT22;29279;50.858;4.392;2023-05-07T05:31:53;19.00;99.90
43679;DHT22;29279;50.858;4.392;2023-05-07T05:34:18;19.10;99.90
43679;DHT22;29279;50.858;4.392;2023-05-07T05:36:47;19.10;99.90
43679;DHT22;29279;50.858;4.392;2023-05-07T05:39:13;19.20;99.90
43679;DHT22;29279;50.858;4.392;2023-05-07T05:41:40;19.20;99.90
43679;DHT22;29279;50.858;4.392;2023-05-07T05:44:06;19.20;99.90
43679;DHT22;29279;50.858;4.392;2023-05-07T05:46:32;19.20;99.90
43679;DHT22;29279;50.858;4.392;2023-05-07T05:48:58;19.30;99.90
43679;DHT22;29279;50.858;4.392;2023-05-07T05:51:23;19.40;99.90
43679;DHT22;29279;50.858;4.392;2023-05-07T05:53:49;19.50;99.90
43679;DHT22;29279;50.858;4.392;2023-05-07T05:56:16;19.50;99.90
43679;DHT22;29279;50.858;4.392;2023-05-07T05:58:42;19.50;99.90
43679;DHT22;29279;50.858;4.392;2023-05-07T06:01:07;19.60;99.90
43679;DHT22;29279;50.858;4.392;2023-05-07T06:03:33;19.50;99.90
43679;DHT22;29279;50.858;4.392;2023-05-07T06:05:59;19.40;99.90
43679;DHT22;29279;50.858;4.392;2023-05-07T06:08:28;19.20;99.90
43679;DHT22;29279;50.858;4.392;2023-05-07T06:10:55;19.10;99.90
43679;DHT22;29279;50.858;4.392;2023-05-07T06:13:20;18.80;99.90
43679;DHT22;29279;50.858;4.392;2023-05-07T06:15:46;18.70;99.90
43679;DHT22;29279;50.858;4.392;2023-05-07T06:18:11;18.60;99.90
43679;DHT22;29279;50.858;4.392;2023-05-07T06:20:37;18.40;99.90
43679;DHT22;29279;50.858;4.392;2023-05-07T06:23:03;18.30;99.90
43679;DHT22;29279;50.858;4.392;2023-05-07T06:25:28;18.10;99.90
43679;DHT22;29279;50.858;4.392;2023-05-07T06:27:54;18.10;99.90
43679;DHT22;29279;50.858;4.392;2023-05-07T06:30:20;18.00;99.90
43679;DHT22;29279;50.858;4.392;2023-05-07T06:32:46;18.10;99.90
43679;DHT22;29279;50.858;4.392;2023-05-07T06:35:11;18.20;99.90
43679;DHT22;29279;50.858;4.392;2023-05-07T06:37:37;18.10;99.90
43679;DHT22;29279;50.858;4.392;2023-05-07T06:40:08;18.10;99.90
43679;DHT22;29279;50.858;4.392;2023-05-07T06:42:35;18.20;99.90
43679;DHT22;29279;50.858;4.392;2023-05-07T06:45:00;18.20;99.90
43679;DHT22;29279;50.858;4.392;2023-05-07T06:47:26;18.20;99.90
43679;DHT22;29279;50.858;4.392;2023-05-07T06:49:52;18.20;99.90
43679;DHT22;29279;50.858;4.392;2023-05-07T06:52:17;18.20;99.90
43679;DHT22;29279;50.858;4.392;2023-05-07T06:54:43;18.20;99.90
43679;DHT22;29279;50.858;4.392;2023-05-07T06:57:09;18.10;99.90
43679;DHT22;29279;50.858;4.392;2023-05-07T06:59:34;18.00;99.90
43679;DHT22;29279;50.858;4.392;2023-05-07T07:02:00;17.80;99.90
43679;DHT22;29279;50.858;4.392;2023-05-07T07:04:25;17.80;99.90
43679;DHT22;29279;50.858;4.392;2023-05-07T07:06:53;17.90;99.90
43679;DHT22;29279;50.858;4.392;2023-05-07T07:09:19;18.00;99.90
43679;DHT22;29279;50.858;4.392;2023-05-07T07:11:44;18.10;99.90
43679;DHT22;29279;50.858;4.392;2023-05-07T07:14:10;18.00;99.90
43679;DHT22;29279;50.858;4.392;2023-05-07T07:16:36;18.10;99.90
43679;DHT22;29279;50.858;4.392;2023-05-07T07:19:01;18.20;99.90
43679;DHT22;29279;50.858;4.392;2023-05-07T07:21:27;18.20;99.90
43679;DHT22;29279;50.858;4.392;2023-05-07T07:23:52;18.20;99.90
43679;DHT22;29279;50.858;4.392;2023-05-07T07:26:18;18.30;99.90
43679;DHT22;29279;50.858;4.392;2023-05-07T07:28:45;18.30;99.90
43679;DHT22;29279;50.858;4.392;2023-05-07T07:31:11;18.30;99.90
43679;DHT22;29279;50.858;4.392;2023-05-07T07:33:37;18.20;99.90
43679;DHT22;29279;50.858;4.392;2023-05-07T07:36:03;18.20;99.90
43679;DHT22;29279;50.858;4.392;2023-05-07T07:38:28;18.20;99.90
43679;DHT22;29279;50.858;4.392;2023-05-07T07:40:54;18.30;99.90
43679;DHT22;29279;50.858;4.392;2023-05-07T07:43:20;18.30;99.90
43679;DHT22;29279;50.858;4.392;2023-05-07T07:45:46;18.40;99.90
43679;DHT22;29279;50.858;4.392;2023-05-07T07:48:11;18.60;99.90
43679;DHT22;29279;50.858;4.392;2023-05-07T07:50:38;18.60;99.90
43679;DHT22;29279;50.858;4.392;2023-05-07T07:53:04;18.50;99.90
43679;DHT22;29279;50.858;4.392;2023-05-07T07:55:29;18.50;99.90
43679;DHT22;29279;50.858;4.392;2023-05-07T07:57:56;18.60;99.90
43679;DHT22;29279;50.858;4.392;2023-05-07T08:00:22;18.60;99.90
43679;DHT22;29279;50.858;4.392;2023-05-07T08:02:47;18.60;99.90
43679;DHT22;29279;50.858;4.392;2023-05-07T08:05:13;18.60;99.90
43679;DHT22;29279;50.858;4.392;2023-05-07T08:07:40;18.60;99.90
43679;DHT22;29279;50.858;4.392;2023-05-07T08:10:06;18.60;99.90
43679;DHT22;29279;50.858;4.392;2023-05-07T08:12:32;18.60;99.90
43679;DHT22;29279;50.858;4.392;2023-05-07T08:14:58;18.60;99.90
43679;DHT22;29279;50.858;4.392;2023-05-07T08:17:24;18.60;99.90
43679;DHT22;29279;50.858;4.392;2023-05-07T08:19:50;18.70;99.90
43679;DHT22;29279;50.858;4.392;2023-05-07T08:22:15;18.70;99.90
43679;DHT22;29279;50.858;4.392;2023-05-07T08:24:43;18.70;99.90
43679;DHT22;29279;50.858;4.392;2023-05-07T08:27:09;18.70;99.90
43679;DHT22;29279;50.858;4.392;2023-05-07T08:29:34;18.80;99.90
43679;DHT22;29279;50.858;4.392;2023-05-07T08:32:01;18.90;99.90
43679;DHT22;29279;50.858;4.392;2023-05-07T08:34:26;18.90;99.90
43679;DHT22;29279;50.858;4.392;2023-05-07T08:36:52;18.90;99.90
43679;DHT22;29279;50.858;4.392;2023-05-07T08:39:18;18.80;99.90
43679;DHT22;29279;50.858;4.392;2023-05-07T08:41:48;18.80;99.90
43679;DHT22;29279;50.858;4.392;2023-05-07T08:44:16;18.90;99.90
43679;DHT22;29279;50.858;4.392;2023-05-07T08:46:45;18.80;99.90
43679;DHT22;29279;50.858;4.392;2023-05-07T08:49:13;18.80;99.90
43679;DHT22;29279;50.858;4.392;2023-05-07T08:51:41;18.80;99.90
43679;DHT22;29279;50.858;4.392;2023-05-07T08:54:07;18.80;99.90
43679;DHT22;29279;50.858;4.392;2023-05-07T08:56:34;18.80;99.90
43679;DHT22;29279;50.858;4.392;2023-05-07T08:59:00;18.90;99.90
43679;DHT22;29279;50.858;4.392;2023-05-07T09:01:26;18.90;99.90
43679;DHT22;29279;50.858;4.392;2023-05-07T09:03:52;19.00;99.90
43679;DHT22;29279;50.858;4.392;2023-05-07T09:06:18;19.00;99.90
43679;DHT22;29279;50.858;4.392;2023-05-07T09:08:51;19.10;99.90
43679;DHT22;29279;50.858;4.392;2023-05-07T09:11:20;19.10;99.90
43679;DHT22;29279;50.858;4.392;2023-05-07T09:13:46;19.20;99.90
43679;DHT22;29279;50.858;4.392;2023-05-07T09:16:12;19.10;99.90
43679;DHT22;29279;50.858;4.392;2023-05-07T09:18:44;19.30;99.90
43679;DHT22;29279;50.858;4.392;2023-05-07T09:21:17;19.40;99.90
43679;DHT22;29279;50.858;4.392;2023-05-07T09:23:43;19.50;99.90
43679;DHT22;29279;50.858;4.392;2023-05-07T09:26:09;19.50;99.90
43679;DHT22;29279;50.858;4.392;2023-05-07T09:28:43;19.50;99.90
43679;DHT22;29279;50.858;4.392;2023-05-07T09:31:11;19.40;99.90
43679;DHT22;29279;50.858;4.392;2023-05-07T09:33:37;19.50;99.90
43679;DHT22;29279;50.858;4.392;2023-05-07T09:36:05;19.40;99.90
43679;DHT22;29279;50.858;4.392;2023-05-07T09:38:32;19.50;99.90
43679;DHT22;29279;50.858;4.392;2023-05-07T09:41:09;19.70;99.90
43679;DHT22;29279;50.858;4.392;2023-05-07T09:43:36;19.80;99.90
43679;DHT22;29279;50.858;4.392;2023-05-07T09:46:13;19.90;99.90
43679;DHT22;29279;50.858;4.392;2023-05-07T09:48:42;20.00;99.90
43679;DHT22;29279;50.858;4.392;2023-05-07T09:51:30;19.90;99.90
43679;DHT22;29279;50.858;4.392;2023-05-07T09:53:57;19.90;99.90
43679;DHT22;29279;50.858;4.392;2023-05-07T09:56:26;19.90;99.90
43679;DHT22;29279;50.858;4.392;2023-05-07T09:58:54;19.90;99.90
43679;DHT22;29279;50.858;4.392;2023-05-07T10:01:21;19.60;99.90
43679;DHT22;29279;50.858;4.392;2023-05-07T10:03:49;19.40;99.90
43679;DHT22;29279;50.858;4.392;2023-05-07T10:06:15;19.30;99.90
43679;DHT22;29279;50.858;4.392;2023-05-07T10:08:42;19.20;99.90
43679;DHT22;29279;50.858;4.392;2023-05-07T10:11:09;19.20;99.90
43679;DHT22;29279;50.858;4.392;2023-05-07T10:13:35;19.30;99.90
43679;DHT22;29279;50.858;4.392;2023-05-07T10:16:05;19.40;99.90
43679;DHT22;29279;50.858;4.392;2023-05-07T10:18:32;19.40;99.90
43679;DHT22;29279;50.858;4.392;2023-05-07T10:21:08;19.30;99.90
43679;DHT22;29279;50.858;4.392;2023-05-07T10:23:36;19.30;99.90
43679;DHT22;29279;50.858;4.392;2023-05-07T10:26:06;19.20;99.90
43679;DHT22;29279;50.858;4.392;2023-05-07T10:28:40;19.20;99.90
43679;DHT22;29279;50.858;4.392;2023-05-07T10:31:23;19.20;99.90
43679;DHT22;29279;50.858;4.392;2023-05-07T10:33:53;19.20;99.90
43679;DHT22;29279;50.858;4.392;2023-05-07T10:36:21;19.20;99.90
43679;DHT22;29279;50.858;4.392;2023-05-07T10:38:47;19.40;99.90
43679;DHT22;29279;50.858;4.392;2023-05-07T10:41:13;19.40;99.90
43679;DHT22;29279;50.858;4.392;2023-05-07T10:43:41;19.50;99.90
43679;DHT22;29279;50.858;4.392;2023-05-07T10:46:18;19.50;99.90
43679;DHT22;29279;50.858;4.392;2023-05-07T10:51:30;19.40;99.90
43679;DHT22;29279;50.858;4.392;2023-05-07T10:56:39;19.40;99.90
43679;DHT22;29279;50.858;4.392;2023-05-07T11:04:15;19.50;99.90
43679;DHT22;29279;50.858;4.392;2023-05-07T11:17:51;19.80;99.90
43679;DHT22;29279;50.858;4.392;2023-05-07T11:20:17;19.70;99.90
43679;DHT22;29279;50.858;4.392;2023-05-07T11:22:43;19.80;99.90
43679;DHT22;29279;50.858;4.392;2023-05-07T11:25:09;19.70;99.90
43679;DHT22;29279;50.858;4.392;2023-05-07T11:27:35;19.90;99.90
43679;DHT22;29279;50.858;4.392;2023-05-07T11:30:01;19.80;99.90
43679;DHT22;29279;50.858;4.392;2023-05-07T11:32:31;19.70;99.90
43679;DHT22;29279;50.858;4.392;2023-05-07T11:34:58;19.70;99.90
43679;DHT22;29279;50.858;4.392;2023-05-07T11:37:26;19.70;99.90
43679;DHT22;29279;50.858;4.392;2023-05-07T11:40:04;19.80;99.90
43679;DHT22;29279;50.858;4.392;2023-05-07T11:42:35;20.00;99.90
43679;DHT22;29279;50.858;4.392;2023-05-07T11:45:03;20.20;99.90
43679;DHT22;29279;50.858;4.392;2023-05-07T11:47:33;20.30;99.90
43679;DHT22;29279;50.858;4.392;2023-05-07T11:50:04;20.40;99.90
43679;DHT22;29279;50.858;4.392;2023-05-07T11:52:31;20.50;99.90
43679;DHT22;29279;50.858;4.392;2023-05-07T11:54:58;20.60;99.90
43679;DHT22;29279;50.858;4.392;2023-05-07T11:57:26;20.70;99.90
43679;DHT22;29279;50.858;4.392;2023-05-07T11:59:59;20.80;99.90
43679;DHT22;29279;50.858;4.392;2023-05-07T12:02:27;20.70;99.90
43679;DHT22;29279;50.858;4.392;2023-05-07T12:04:54;20.50;99.90
43679;DHT22;29279;50.858;4.392;2023-05-07T12:07:20;20.50;99.90
43679;DHT22;29279;50.858;4.392;2023-05-07T12:09:47;20.70;99.90
43679;DHT22;29279;50.858;4.392;2023-05-07T12:12:13;20.80;99.90
43679;DHT22;29279;50.858;4.392;2023-05-07T12:14:44;20.80;99.90
43679;DHT22;29279;50.858;4.392;2023-05-07T12:17:11;21.00;99.90
43679;DHT22;29279;50.858;4.392;2023-05-07T12:19:38;21.00;99.90
43679;DHT22;29279;50.858;4.392;2023-05-07T12:22:05;21.10;99.90
43679;DHT22;29279;50.858;4.392;2023-05-07T12:24:49;21.20;99.90
43679;DHT22;29279;50.858;4.392;2023-05-07T12:27:15;21.20;99.90
43679;DHT22;29279;50.858;4.392;2023-05-07T12:29:48;21.20;99.90
43679;DHT22;29279;50.858;4.392;2023-05-07T12:32:15;21.10;99.90
43679;DHT22;29279;50.858;4.392;2023-05-07T12:34:41;21.00;99.90
43679;DHT22;29279;50.858;4.392;2023-05-07T12:37:07;20.70;99.90
43679;DHT22;29279;50.858;4.392;2023-05-07T12:39:33;20.60;99.90
43679;DHT22;29279;50.858;4.392;2023-05-07T12:41:59;20.60;99.90
43679;DHT22;29279;50.858;4.392;2023-05-07T12:44:29;20.70;99.90
43679;DHT22;29279;50.858;4.392;2023-05-07T12:46:55;20.80;99.90
43679;DHT22;29279;50.858;4.392;2023-05-07T12:49:21;20.80;99.90
43679;DHT22;29279;50.858;4.392;2023-05-07T12:51:47;20.90;99.90
43679;DHT22;29279;50.858;4.392;2023-05-07T12:54:37;21.10;99.90
43679;DHT22;29279;50.858;4.392;2023-05-07T12:57:05;21.20;99.90
43679;DHT22;29279;50.858;4.392;2023-05-07T12:59:41;21.30;99.90
43679;DHT22;29279;50.858;4.392;2023-05-07T13:02:07;21.30;99.90
43679;DHT22;29279;50.858;4.392;2023-05-07T13:04:33;21.20;99.90
43679;DHT22;29279;50.858;4.392;2023-05-07T13:06:59;21.10;99.90
43679;DHT22;29279;50.858;4.392;2023-05-07T13:09:25;21.30;99.90
43679;DHT22;29279;50.858;4.392;2023-05-07T13:11:51;21.50;99.90
43679;DHT22;29279;50.858;4.392;2023-05-07T13:14:17;21.60;99.90
43679;DHT22;29279;50.858;4.392;2023-05-07T13:16:43;21.60;99.90
43679;DHT22;29279;50.858;4.392;2023-05-07T13:19:08;21.50;99.90
43679;DHT22;29279;50.858;4.392;2023-05-07T13:21:34;21.60;99.90
43679;DHT22;29279;50.858;4.392;2023-05-07T13:24:00;21.60;99.90
43679;DHT22;29279;50.858;4.392;2023-05-07T13:26:26;21.50;99.90
43679;DHT22;29279;50.858;4.392;2023-05-07T13:28:54;21.40;99.90
43679;DHT22;29279;50.858;4.392;2023-05-07T13:31:20;21.10;99.90
43679;DHT22;29279;50.858;4.392;2023-05-07T13:33:46;21.00;99.90
43679;DHT22;29279;50.858;4.392;2023-05-07T13:36:12;21.00;99.90
43679;DHT22;29279;50.858;4.392;2023-05-07T13:38:39;21.00;99.90
43679;DHT22;29279;50.858;4.392;2023-05-07T13:41:05;20.80;99.90
43679;DHT22;29279;50.858;4.392;2023-05-07T13:43:31;20.70;99.90
43679;DHT22;29279;50.858;4.392;2023-05-07T13:45:59;20.70;99.90
43679;DHT22;29279;50.858;4.392;2023-05-07T13:48:25;20.80;99.90
43679;DHT22;29279;50.858;4.392;2023-05-07T13:50:50;20.80;99.90
43679;DHT22;29279;50.858;4.392;2023-05-07T13:53:17;20.90;99.90
43679;DHT22;29279;50.858;4.392;2023-05-07T13:55:44;21.00;99.90
43679;DHT22;29279;50.858;4.392;2023-05-07T13:58:10;20.90;99.90
43679;DHT22;29279;50.858;4.392;2023-05-07T14:00:36;21.00;99.90
43679;DHT22;29279;50.858;4.392;2023-05-07T14:03:01;21.10;99.90
43679;DHT22;29279;50.858;4.392;2023-05-07T14:05:27;21.20;99.90
43679;DHT22;29279;50.858;4.392;2023-05-07T14:07:54;21.30;99.90
43679;DHT22;29279;50.858;4.392;2023-05-07T14:10:20;21.20;99.90
43679;DHT22;29279;50.858;4.392;2023-05-07T14:12:46;21.30;99.90
43679;DHT22;29279;50.858;4.392;2023-05-07T14:15:15;21.30;99.90
43679;DHT22;29279;50.858;4.392;2023-05-07T14:17:42;21.40;99.90
43679;DHT22;29279;50.858;4.392;2023-05-07T14:20:08;21.40;99.90
43679;DHT22;29279;50.858;4.392;2023-05-07T14:22:34;21.40;99.90
43679;DHT22;29279;50.858;4.392;2023-05-07T14:25:00;21.30;99.90
43679;DHT22;29279;50.858;4.392;2023-05-07T14:27:25;21.20;99.90
43679;DHT22;29279;50.858;4.392;2023-05-07T14:29:51;21.20;99.90
43679;DHT22;29279;50.858;4.392;2023-05-07T14:32:17;21.30;99.90
43679;DHT22;29279;50.858;4.392;2023-05-07T14:34:44;21.30;99.90
43679;DHT22;29279;50.858;4.392;2023-05-07T14:37:10;21.30;99.90
43679;DHT22;29279;50.858;4.392;2023-05-07T14:39:36;21.40;99.90
43679;DHT22;29279;50.858;4.392;2023-05-07T14:42:01;21.50;99.90
43679;DHT22;29279;50.858;4.392;2023-05-07T14:44:27;21.50;99.90
43679;DHT22;29279;50.858;4.392;2023-05-07T14:46:54;21.50;99.90
43679;DHT22;29279;50.858;4.392;2023-05-07T14:49:19;21.50;99.90
43679;DHT22;29279;50.858;4.392;2023-05-07T14:51:46;21.60;99.90
43679;DHT22;29279;50.858;4.392;2023-05-07T14:54:13;21.70;99.90
43679;DHT22;29279;50.858;4.392;2023-05-07T14:56:39;21.70;99.90
43679;DHT22;29279;50.858;4.392;2023-05-07T14:59:05;21.70;99.90
43679;DHT22;29279;50.858;4.392;2023-05-07T15:01:31;21.70;99.90
43679;DHT22;29279;50.858;4.392;2023-05-07T15:03:57;21.60;99.90
43679;DHT22;29279;50.858;4.392;2023-05-07T15:06:22;21.30;99.90
43679;DHT22;29279;50.858;4.392;2023-05-07T15:08:48;21.30;99.90
43679;DHT22;29279;50.858;4.392;2023-05-07T15:11:14;21.20;99.90
43679;DHT22;29279;50.858;4.392;2023-05-07T15:13:42;21.20;99.90
43679;DHT22;29279;50.858;4.392;2023-05-07T15:16:07;21.20;99.90
43679;DHT22;29279;50.858;4.392;2023-05-07T15:18:33;21.20;99.90
43679;DHT22;29279;50.858;4.392;2023-05-07T15:20:59;21.20;99.90
43679;DHT22;29279;50.858;4.392;2023-05-07T15:23:24;21.20;99.90
43679;DHT22;29279;50.858;4.392;2023-05-07T15:25:51;21.20;99.90
43679;DHT22;29279;50.858;4.392;2023-05-07T15:28:17;21.20;99.90
43679;DHT22;29279;50.858;4.392;2023-05-07T15:30:43;21.20;99.90
43679;DHT22;29279;50.858;4.392;2023-05-07T15:33:08;21.00;99.90
43679;DHT22;29279;50.858;4.392;2023-05-07T15:35:35;20.80;99.90
43679;DHT22;29279;50.858;4.392;2023-05-07T15:38:00;20.80;99.90
43679;DHT22;29279;50.858;4.392;2023-05-07T15:40:29;20.60;99.90
43679;DHT22;29279;50.858;4.392;2023-05-07T15:42:56;20.50;99.90
43679;DHT22;29279;50.858;4.392;2023-05-07T15:45:22;20.50;99.90
43679;DHT22;29279;50.858;4.392;2023-05-07T15:47:48;20.50;99.90